Main page
METAR-TAF:

METAR-TAF

Airports :

Nancy-Essey Airport

Nancy, France

latitude: 48-41N, longitude: 006-13E, elevation: 225 m

Current weather observation

The report was made 44 minutes ago, at 01:30 UTC
Wind 3 kt from the Southeast
Temperature 17°C
Humidity 100%
Pressure 1015 hPa
Visibility 10 km or more
Few clouds at a height of 4400 ft

METAR: LFSN 150130Z AUTO 13003KT 9999 FEW044 17/17 Q1015

Time: 04:14 (02:14 UTC)


TAF: missing

Weather observations and forecasts of more than 4000 airports (METAR and TAF reports).

The available stations are represented by yellow and red dots on the map.

Hover mouse over dot to see the name of the station.

Then click to see weather observations and forecasts.

To change the map : click on the green buttons with a black cross to zoom in, on the green button with a dash to zoom out, or on the green arrows for adjacent maps.


METAR-TAF: